Newnan, Georgia
Current Conditions -  °F | °C
As of 3:15 AM on Monday 26 Jan 2015 (Local Time) from KCCO Reporting Station
Broken Clouds Broken Clouds  
Wind Chill: 42°   Ceiling: 3200
Heat Index: 44°   Visibility: 10mi
Dew Point: 42°   Wind: 5mph
Humidity: 91%   Direction: 290°WNW
Pressure: 29.76"   Gusts: NA
Location:  33.38°N, 84.8°W
Report Text: KCCO 260815Z AUTO 29004KT 10SM SCT023 BKN032 07/06 A2976 RMK AO2 T00690056
Loading
Personal Weather Stations






























Interactive Weather Map New forecast layout! Learn more

10-Day Weather Forecast

Advertisements
Track Severe Weather on mobile